Terminal Aerodrome Forecast
Issued by NWS

Home | Current Version | Previous Version | Text Only | Print | Product List | Glossary On
Versions: 1 2 3 4 5 6 7 8 9 10 11 12
000
FTUS45 KTFX 312300 RRA
TAFHLN
TAF
KHLN 312342Z 0100/0124 36012G18KT P6SM VCTS SCT080CB BKN150
     FM010200 26005KT P6SM SCT100 BKN150
     FM010700 VRB04KT P6SM FEW150
     FM012100 07006KT P6SM SCT070 SCT120=

USA.gov is the U.S. government's official web portal to all federal, state and local government web resources and services.